Hovedside
METAR-TAF:

METAR-TAF

Lufthavner :

Victoria Falls lufthavn

Victoriafallene, Zimbabwe

breddegrad: 18-06S, lengdegrad: 025-51E, høyde over havet: 1061 m

Gjeldene værobservasjon

Denne rapporten ble laget for 6 timer og 27 minutter siden, klokken 14:00 UTC
Vind 8 kt fra Øst-sørøst, skiftende mellom Nordøst og Sør-sørøst
Temperatur 35°C
Luftfuktighet 18%
Trykk 1015 hPa
Sikt 10 km eller mer
ingen skyer under 1500 m og ingen bygeskyer

METAR: FVFA 211400Z 12008KT 050V160 CAVOK 35/07 Q1015 NOSIG

Tid: 22:27 (20:27 UTC)


TAF: fraværende

Værobservasjoner og værvarsel for over 4000 flyplasser (METAR- og TAF-rapporter).

Tilgjengelige stasjoner er representert av de røde og gule prikkene på kartet.

Hold musepekeren over prikken for å se navnet på stasjonen.

Klikk så for å se værobservasjoner og -varsler.

For å forandre kartet kan du klikke på den grønne knappen med svart kryss for å zoome inn, på den grønne knappen med strek for å zoome ut, eller på de grønne pilene for å se tilstøtende kart.


METAR-TAF: